sensor_id;sensor_type;location;lat;lon;timestamp;pressure;altitude;pressure_sealevel;temperature;humidity
70458;BME280;57919;56.194;95.716;2022-12-18T00:00:42;100126.22;;;-20.60;59.63
70458;BME280;57919;56.194;95.716;2022-12-18T00:10:45;100122.28;;;-20.88;59.24
70458;BME280;57919;56.194;95.716;2022-12-18T00:20:47;100112.38;;;-20.80;59.35
70458;BME280;57919;56.194;95.716;2022-12-18T00:30:49;100094.84;;;-20.71;59.98
70458;BME280;57919;56.194;95.716;2022-12-18T00:40:52;100072.44;;;-20.74;59.24
70458;BME280;57919;56.194;95.716;2022-12-18T00:50:54;100077.88;;;-20.68;59.20
70458;BME280;57919;56.194;95.716;2022-12-18T01:00:56;100072.97;;;-20.63;59.45
70458;BME280;57919;56.194;95.716;2022-12-18T01:10:58;100094.56;;;-20.59;58.75
70458;BME280;57919;56.194;95.716;2022-12-18T01:21:06;100069.38;;;-20.67;59.55
70458;BME280;57919;56.194;95.716;2022-12-18T01:31:13;100073.41;;;-20.72;59.44
70458;BME280;57919;56.194;95.716;2022-12-18T01:41:17;100075.69;;;-20.78;59.36
70458;BME280;57919;56.194;95.716;2022-12-18T01:51:20;100051.56;;;-20.98;59.47
70458;BME280;57919;56.194;95.716;2022-12-18T02:01:23;100033.50;;;-21.17;59.21
70458;BME280;57919;56.194;95.716;2022-12-18T02:22:11;100013.44;;;-19.58;58.58
70458;BME280;57919;56.194;95.716;2022-12-18T02:32:22;99970.44;;;-20.38;58.54
70458;BME280;57919;56.194;95.716;2022-12-18T02:42:28;99976.72;;;-20.31;58.89
70458;BME280;57919;56.194;95.716;2022-12-18T03:13:33;99955.34;;;-20.49;61.38
70458;BME280;57919;56.194;95.716;2022-12-18T03:23:47;99940.38;;;-20.19;61.09
70458;BME280;57919;56.194;95.716;2022-12-18T03:33:55;99935.97;;;-19.83;61.20
70458;BME280;57919;56.194;95.716;2022-12-18T03:54:45;99914.63;;;-19.18;60.95
70458;BME280;57919;56.194;95.716;2022-12-18T04:04:53;99904.16;;;-18.78;61.31
70458;BME280;57919;56.194;95.716;2022-12-18T04:14:57;99872.47;;;-18.04;61.44
70458;BME280;57919;56.194;95.716;2022-12-18T04:25:00;99864.47;;;-17.61;59.79
70458;BME280;57919;56.194;95.716;2022-12-18T04:35:10;99870.41;;;-17.38;60.13
70458;BME280;57919;56.194;95.716;2022-12-18T04:45:16;99864.78;;;-16.98;59.90
70458;BME280;57919;56.194;95.716;2022-12-18T04:55:20;99854.59;;;-16.65;60.03
70458;BME280;57919;56.194;95.716;2022-12-18T05:05:22;99829.03;;;-16.23;58.98
70458;BME280;57919;56.194;95.716;2022-12-18T05:15:31;99810.75;;;-15.96;59.54
70458;BME280;57919;56.194;95.716;2022-12-18T05:25:33;99783.34;;;-15.88;59.02
70458;BME280;57919;56.194;95.716;2022-12-18T05:35:35;99772.72;;;-15.64;58.45
70458;BME280;57919;56.194;95.716;2022-12-18T05:45:38;99752.81;;;-15.99;58.71
70458;BME280;57919;56.194;95.716;2022-12-18T05:55:41;99738.91;;;-16.36;59.23
70458;BME280;57919;56.194;95.716;2022-12-18T06:05:44;99730.81;;;-16.48;59.34
70458;BME280;57919;56.194;95.716;2022-12-18T06:15:47;99732.81;;;-16.38;59.67
70458;BME280;57919;56.194;95.716;2022-12-18T06:25:49;99714.63;;;-15.72;59.20
70458;BME280;57919;56.194;95.716;2022-12-18T06:35:51;99707.06;;;-15.24;59.32
70458;BME280;57919;56.194;95.716;2022-12-18T06:46:01;99702.75;;;-15.23;59.52
70458;BME280;57919;56.194;95.716;2022-12-18T06:56:07;99698.78;;;-15.08;59.90
70458;BME280;57919;56.194;95.716;2022-12-18T07:06:17;99687.16;;;-14.84;60.15
70458;BME280;57919;56.194;95.716;2022-12-18T07:16:20;99645.16;;;-14.63;60.32
70458;BME280;57919;56.194;95.716;2022-12-18T07:26:22;99664.47;;;-14.49;60.87
70458;BME280;57919;56.194;95.716;2022-12-18T07:36:25;99673.50;;;-14.26;60.56
70458;BME280;57919;56.194;95.716;2022-12-18T07:46:27;99633.28;;;-14.51;61.35
70458;BME280;57919;56.194;95.716;2022-12-18T07:56:29;99649.88;;;-14.40;61.55
70458;BME280;57919;56.194;95.716;2022-12-18T08:06:31;99672.94;;;-14.08;61.26
70458;BME280;57919;56.194;95.716;2022-12-18T08:16:33;99675.56;;;-14.07;61.77
70458;BME280;57919;56.194;95.716;2022-12-18T08:26:35;99689.09;;;-13.75;62.03
70458;BME280;57919;56.194;95.716;2022-12-18T08:36:37;99672.78;;;-13.01;61.30
70458;BME280;57919;56.194;95.716;2022-12-18T08:46:41;99683.50;;;-12.77;60.90
70458;BME280;57919;56.194;95.716;2022-12-18T08:56:43;99688.41;;;-13.01;61.33
70458;BME280;57919;56.194;95.716;2022-12-18T09:06:45;99707.50;;;-13.00;61.06
70458;BME280;57919;56.194;95.716;2022-12-18T09:16:47;99700.56;;;-13.62;61.75
70458;BME280;57919;56.194;95.716;2022-12-18T09:26:53;99710.94;;;-13.63;61.63
70458;BME280;57919;56.194;95.716;2022-12-18T09:36:56;99703.91;;;-13.69;62.11
70458;BME280;57919;56.194;95.716;2022-12-18T09:47:25;99726.72;;;-13.53;62.07
70458;BME280;57919;56.194;95.716;2022-12-18T09:57:32;99721.59;;;-13.48;61.19
70458;BME280;57919;56.194;95.716;2022-12-18T10:08:24;99717.59;;;-13.81;60.77
70458;BME280;57919;56.194;95.716;2022-12-18T10:28:40;99705.69;;;-14.18;61.74
70458;BME280;57919;56.194;95.716;2022-12-18T10:38:42;99705.25;;;-13.94;62.51
70458;BME280;57919;56.194;95.716;2022-12-18T10:59:05;99718.59;;;-13.73;62.15
70458;BME280;57919;56.194;95.716;2022-12-18T11:09:23;99717.22;;;-14.02;62.43
70458;BME280;57919;56.194;95.716;2022-12-18T11:19:36;99703.66;;;-14.34;62.65
70458;BME280;57919;56.194;95.716;2022-12-18T11:29:39;99752.66;;;-14.54;63.39
70458;BME280;57919;56.194;95.716;2022-12-18T11:40:00;99757.69;;;-14.61;63.39
70458;BME280;57919;56.194;95.716;2022-12-18T12:00:47;99751.56;;;-14.20;64.14
70458;BME280;57919;56.194;95.716;2022-12-18T12:21:42;99762.13;;;-13.02;64.41
70458;BME280;57919;56.194;95.716;2022-12-18T12:41:54;99761.00;;;-10.54;64.98
70458;BME280;57919;56.194;95.716;2022-12-18T12:52:40;99768.25;;;-9.47;62.26
70458;BME280;57919;56.194;95.716;2022-12-18T13:03:12;99799.69;;;-9.13;61.71
70458;BME280;57919;56.194;95.716;2022-12-18T13:13:17;99803.19;;;-9.08;61.46
70458;BME280;57919;56.194;95.716;2022-12-18T13:43:32;99832.84;;;-9.52;60.96
70458;BME280;57919;56.194;95.716;2022-12-18T13:53:43;99822.31;;;-9.71;60.83
70458;BME280;57919;56.194;95.716;2022-12-18T14:03:46;99859.00;;;-9.58;61.67
70458;BME280;57919;56.194;95.716;2022-12-18T14:13:49;99874.69;;;-9.64;61.82
70458;BME280;57919;56.194;95.716;2022-12-18T14:24:23;99877.25;;;-9.76;62.16
70458;BME280;57919;56.194;95.716;2022-12-18T14:34:26;99892.94;;;-9.81;62.69
70458;BME280;57919;56.194;95.716;2022-12-18T14:44:28;99903.47;;;-9.68;62.19
70458;BME280;57919;56.194;95.716;2022-12-18T14:54:31;99905.97;;;-9.94;62.37
70458;BME280;57919;56.194;95.716;2022-12-18T15:04:37;99904.13;;;-10.12;63.20
70458;BME280;57919;56.194;95.716;2022-12-18T15:14:41;99937.25;;;-10.16;63.15
70458;BME280;57919;56.194;95.716;2022-12-18T15:24:44;99920.59;;;-10.33;63.42
70458;BME280;57919;56.194;95.716;2022-12-18T15:34:46;99944.28;;;-10.05;63.14
70458;BME280;57919;56.194;95.716;2022-12-18T15:44:48;99976.69;;;-9.81;62.85
70458;BME280;57919;56.194;95.716;2022-12-18T15:54:50;99987.28;;;-9.59;62.72
70458;BME280;57919;56.194;95.716;2022-12-18T16:05:15;99993.44;;;-9.50;62.28
70458;BME280;57919;56.194;95.716;2022-12-18T16:15:18;99981.25;;;-9.41;62.26
70458;BME280;57919;56.194;95.716;2022-12-18T16:25:26;99986.59;;;-9.05;61.30
70458;BME280;57919;56.194;95.716;2022-12-18T16:35:29;99989.22;;;-9.05;60.30
70458;BME280;57919;56.194;95.716;2022-12-18T16:45:31;99999.63;;;-9.32;60.95
70458;BME280;57919;56.194;95.716;2022-12-18T16:55:34;99995.16;;;-9.56;60.33
70458;BME280;57919;56.194;95.716;2022-12-18T17:05:36;99976.75;;;-9.67;60.74
70458;BME280;57919;56.194;95.716;2022-12-18T17:15:38;100001.25;;;-9.57;60.88
70458;BME280;57919;56.194;95.716;2022-12-18T17:25:40;100009.09;;;-9.59;61.13
70458;BME280;57919;56.194;95.716;2022-12-18T17:35:42;100011.66;;;-9.69;61.26
70458;BME280;57919;56.194;95.716;2022-12-18T17:45:44;100003.63;;;-9.97;61.22
70458;BME280;57919;56.194;95.716;2022-12-18T17:55:58;99994.75;;;-10.26;61.59
70458;BME280;57919;56.194;95.716;2022-12-18T18:06:06;100058.31;;;-10.32;61.91
70458;BME280;57919;56.194;95.716;2022-12-18T18:16:10;100037.16;;;-10.59;62.03
70458;BME280;57919;56.194;95.716;2022-12-18T18:26:12;100075.66;;;-10.41;61.82
70458;BME280;57919;56.194;95.716;2022-12-18T18:36:14;100078.97;;;-10.61;62.09
70458;BME280;57919;56.194;95.716;2022-12-18T18:46:16;100110.38;;;-10.58;62.50
70458;BME280;57919;56.194;95.716;2022-12-18T18:56:23;100077.94;;;-10.77;62.63
70458;BME280;57919;56.194;95.716;2022-12-18T19:06:26;100121.72;;;-10.54;63.31
70458;BME280;57919;56.194;95.716;2022-12-18T19:16:29;100119.13;;;-10.54;63.24
70458;BME280;57919;56.194;95.716;2022-12-18T19:26:31;100110.44;;;-10.52;63.68
70458;BME280;57919;56.194;95.716;2022-12-18T19:36:37;100120.19;;;-10.34;63.27
70458;BME280;57919;56.194;95.716;2022-12-18T19:46:40;100094.91;;;-10.36;63.72
70458;BME280;57919;56.194;95.716;2022-12-18T19:56:44;100122.06;;;-10.21;63.26
70458;BME280;57919;56.194;95.716;2022-12-18T20:06:50;100120.41;;;-10.09;63.36
70458;BME280;57919;56.194;95.716;2022-12-18T20:16:52;100103.81;;;-10.10;62.99
70458;BME280;57919;56.194;95.716;2022-12-18T20:26:54;100061.91;;;-10.16;62.47
70458;BME280;57919;56.194;95.716;2022-12-18T20:36:56;100094.34;;;-9.97;62.21
70458;BME280;57919;56.194;95.716;2022-12-18T20:46:59;100101.28;;;-9.99;62.19
70458;BME280;57919;56.194;95.716;2022-12-18T20:57:03;100081.16;;;-10.09;62.28
70458;BME280;57919;56.194;95.716;2022-12-18T21:07:06;100080.25;;;-10.12;62.26
70458;BME280;57919;56.194;95.716;2022-12-18T21:17:08;100102.81;;;-10.27;62.56
70458;BME280;57919;56.194;95.716;2022-12-18T21:27:10;100105.34;;;-10.38;62.69
70458;BME280;57919;56.194;95.716;2022-12-18T21:37:12;100096.59;;;-10.41;62.56
70458;BME280;57919;56.194;95.716;2022-12-18T21:47:14;100072.94;;;-10.52;62.63
70458;BME280;57919;56.194;95.716;2022-12-18T21:57:17;100059.81;;;-10.58;62.63
70458;BME280;57919;56.194;95.716;2022-12-18T22:07:19;100064.19;;;-10.59;62.43
70458;BME280;57919;56.194;95.716;2022-12-18T22:17:21;100083.38;;;-10.55;62.47
70458;BME280;57919;56.194;95.716;2022-12-18T22:27:22;100079.00;;;-10.56;62.80
70458;BME280;57919;56.194;95.716;2022-12-18T22:37:24;100079.00;;;-10.58;62.52
70458;BME280;57919;56.194;95.716;2022-12-18T22:47:26;100079.91;;;-10.53;62.45
70458;BME280;57919;56.194;95.716;2022-12-18T22:57:28;100081.63;;;-10.56;62.77
70458;BME280;57919;56.194;95.716;2022-12-18T23:07:30;100057.19;;;-10.61;62.80
70458;BME280;57919;56.194;95.716;2022-12-18T23:17:32;100071.28;;;-10.44;62.81
70458;BME280;57919;56.194;95.716;2022-12-18T23:27:33;100058.19;;;-10.49;63.01
70458;BME280;57919;56.194;95.716;2022-12-18T23:37:36;100067.94;;;-10.31;63.05
70458;BME280;57919;56.194;95.716;2022-12-18T23:47:38;100059.97;;;-10.41;63.12
70458;BME280;57919;56.194;95.716;2022-12-18T23:57:40;100058.13;;;-10.53;63.36
